sensor_id;sensor_type;location;lat;lon;timestamp;P1;durP1;ratioP1;P2;durP2;ratioP2
8791;SDS011;4432;50.890;4.744;2022-12-18T00:01:03;17.53;;;8.77;;
8791;SDS011;4432;50.890;4.744;2022-12-18T00:03:32;14.87;;;7.53;;
8791;SDS011;4432;50.890;4.744;2022-12-18T00:05:58;14.87;;;7.60;;
8791;SDS011;4432;50.890;4.744;2022-12-18T00:08:24;14.20;;;7.30;;
8791;SDS011;4432;50.890;4.744;2022-12-18T00:10:50;11.77;;;6.17;;
8791;SDS011;4432;50.890;4.744;2022-12-18T00:13:16;11.63;;;7.50;;
8791;SDS011;4432;50.890;4.744;2022-12-18T00:15:42;15.20;;;6.57;;
8791;SDS011;4432;50.890;4.744;2022-12-18T00:18:07;14.70;;;6.87;;
8791;SDS011;4432;50.890;4.744;2022-12-18T00:20:38;9.00;;;5.33;;
8791;SDS011;4432;50.890;4.744;2022-12-18T00:23:05;18.30;;;7.50;;
8791;SDS011;4432;50.890;4.744;2022-12-18T00:25:35;12.27;;;6.80;;
8791;SDS011;4432;50.890;4.744;2022-12-18T00:28:02;15.97;;;8.83;;
8791;SDS011;4432;50.890;4.744;2022-12-18T00:30:28;14.10;;;7.57;;
8791;SDS011;4432;50.890;4.744;2022-12-18T00:32:55;19.43;;;8.03;;
8791;SDS011;4432;50.890;4.744;2022-12-18T00:35:21;7.60;;;5.60;;
8791;SDS011;4432;50.890;4.744;2022-12-18T00:37:47;14.63;;;7.00;;
8791;SDS011;4432;50.890;4.744;2022-12-18T00:40:13;10.97;;;7.07;;
8791;SDS011;4432;50.890;4.744;2022-12-18T00:42:39;12.97;;;6.30;;
8791;SDS011;4432;50.890;4.744;2022-12-18T00:45:24;9.77;;;6.33;;
8791;SDS011;4432;50.890;4.744;2022-12-18T00:47:53;12.73;;;7.33;;
8791;SDS011;4432;50.890;4.744;2022-12-18T00:50:20;9.63;;;5.63;;
8791;SDS011;4432;50.890;4.744;2022-12-18T00:52:47;9.73;;;6.37;;
8791;SDS011;4432;50.890;4.744;2022-12-18T00:55:13;14.47;;;6.47;;
8791;SDS011;4432;50.890;4.744;2022-12-18T00:57:40;18.87;;;6.83;;
8791;SDS011;4432;50.890;4.744;2022-12-18T01:00:07;6.93;;;6.23;;
8791;SDS011;4432;50.890;4.744;2022-12-18T01:02:35;6.80;;;5.10;;
8791;SDS011;4432;50.890;4.744;2022-12-18T01:05:01;5.83;;;4.17;;
8791;SDS011;4432;50.890;4.744;2022-12-18T01:07:28;11.70;;;5.90;;
8791;SDS011;4432;50.890;4.744;2022-12-18T01:09:54;14.30;;;5.87;;
8791;SDS011;4432;50.890;4.744;2022-12-18T01:12:19;13.27;;;6.47;;
8791;SDS011;4432;50.890;4.744;2022-12-18T01:14:45;15.17;;;6.67;;
8791;SDS011;4432;50.890;4.744;2022-12-18T01:17:11;8.83;;;6.00;;
8791;SDS011;4432;50.890;4.744;2022-12-18T01:19:37;10.07;;;5.60;;
8791;SDS011;4432;50.890;4.744;2022-12-18T01:22:02;19.30;;;6.27;;
8791;SDS011;4432;50.890;4.744;2022-12-18T01:24:28;5.93;;;4.07;;
8791;SDS011;4432;50.890;4.744;2022-12-18T01:26:54;10.30;;;6.17;;
8791;SDS011;4432;50.890;4.744;2022-12-18T01:29:22;13.07;;;6.03;;
8791;SDS011;4432;50.890;4.744;2022-12-18T01:31:48;8.00;;;5.57;;
8791;SDS011;4432;50.890;4.744;2022-12-18T01:34:14;7.50;;;4.30;;
8791;SDS011;4432;50.890;4.744;2022-12-18T01:36:40;10.90;;;5.20;;
8791;SDS011;4432;50.890;4.744;2022-12-18T01:39:07;13.30;;;6.50;;
8791;SDS011;4432;50.890;4.744;2022-12-18T01:41:36;6.10;;;4.50;;
8791;SDS011;4432;50.890;4.744;2022-12-18T01:47:19;11.80;;;4.80;;
8791;SDS011;4432;50.890;4.744;2022-12-18T01:53:14;11.57;;;5.67;;
8791;SDS011;4432;50.890;4.744;2022-12-18T01:55:46;7.57;;;4.73;;
8791;SDS011;4432;50.890;4.744;2022-12-18T01:58:15;7.87;;;5.03;;
8791;SDS011;4432;50.890;4.744;2022-12-18T02:00:42;6.57;;;5.67;;
8791;SDS011;4432;50.890;4.744;2022-12-18T02:03:08;12.60;;;5.27;;
8791;SDS011;4432;50.890;4.744;2022-12-18T02:05:44;12.10;;;5.40;;
8791;SDS011;4432;50.890;4.744;2022-12-18T02:08:23;6.90;;;5.37;;
8791;SDS011;4432;50.890;4.744;2022-12-18T02:11:02;15.07;;;6.83;;
8791;SDS011;4432;50.890;4.744;2022-12-18T02:18:59;8.30;;;5.23;;
8791;SDS011;4432;50.890;4.744;2022-12-18T02:21:34;5.60;;;4.53;;
8791;SDS011;4432;50.890;4.744;2022-12-18T02:24:18;6.43;;;4.43;;
8791;SDS011;4432;50.890;4.744;2022-12-18T02:27:15;8.03;;;4.27;;
8791;SDS011;4432;50.890;4.744;2022-12-18T02:29:51;7.03;;;4.33;;
8791;SDS011;4432;50.890;4.744;2022-12-18T02:32:22;10.03;;;6.47;;
8791;SDS011;4432;50.890;4.744;2022-12-18T02:34:52;5.80;;;4.87;;
8791;SDS011;4432;50.890;4.744;2022-12-18T02:37:21;9.73;;;4.47;;
8791;SDS011;4432;50.890;4.744;2022-12-18T02:39:49;7.13;;;4.83;;
8791;SDS011;4432;50.890;4.744;2022-12-18T02:42:16;9.17;;;4.40;;
8791;SDS011;4432;50.890;4.744;2022-12-18T02:44:44;8.60;;;3.13;;
8791;SDS011;4432;50.890;4.744;2022-12-18T02:47:12;8.73;;;5.13;;
8791;SDS011;4432;50.890;4.744;2022-12-18T02:52:38;4.40;;;3.43;;
8791;SDS011;4432;50.890;4.744;2022-12-18T02:58:16;6.43;;;3.80;;
8791;SDS011;4432;50.890;4.744;2022-12-18T03:00:58;7.30;;;4.90;;
8791;SDS011;4432;50.890;4.744;2022-12-18T03:06:08;12.20;;;4.90;;
8791;SDS011;4432;50.890;4.744;2022-12-18T03:08:38;6.13;;;5.20;;
8791;SDS011;4432;50.890;4.744;2022-12-18T03:11:08;7.73;;;5.37;;
8791;SDS011;4432;50.890;4.744;2022-12-18T03:13:50;8.00;;;4.03;;
8791;SDS011;4432;50.890;4.744;2022-12-18T03:16:25;5.30;;;4.63;;
8791;SDS011;4432;50.890;4.744;2022-12-18T03:18:55;17.77;;;5.30;;
8791;SDS011;4432;50.890;4.744;2022-12-18T03:21:31;10.00;;;4.60;;
8791;SDS011;4432;50.890;4.744;2022-12-18T03:24:02;7.80;;;4.80;;
8791;SDS011;4432;50.890;4.744;2022-12-18T03:26:32;9.00;;;4.37;;
8791;SDS011;4432;50.890;4.744;2022-12-18T03:29:06;10.10;;;4.43;;
8791;SDS011;4432;50.890;4.744;2022-12-18T03:31:35;9.70;;;3.87;;
8791;SDS011;4432;50.890;4.744;2022-12-18T03:34:05;5.80;;;4.63;;
8791;SDS011;4432;50.890;4.744;2022-12-18T03:36:38;8.90;;;4.47;;
8791;SDS011;4432;50.890;4.744;2022-12-18T03:39:04;9.50;;;5.57;;
8791;SDS011;4432;50.890;4.744;2022-12-18T03:41:33;6.07;;;3.83;;
8791;SDS011;4432;50.890;4.744;2022-12-18T03:44:24;7.40;;;5.03;;
8791;SDS011;4432;50.890;4.744;2022-12-18T03:52:30;5.83;;;4.33;;
8791;SDS011;4432;50.890;4.744;2022-12-18T03:55:20;8.80;;;4.20;;
8791;SDS011;4432;50.890;4.744;2022-12-18T03:57:48;6.57;;;4.57;;
8791;SDS011;4432;50.890;4.744;2022-12-18T04:00:17;8.03;;;4.23;;
8791;SDS011;4432;50.890;4.744;2022-12-18T04:02:49;6.10;;;5.60;;
8791;SDS011;4432;50.890;4.744;2022-12-18T04:05:18;6.90;;;4.53;;
8791;SDS011;4432;50.890;4.744;2022-12-18T04:07:46;6.23;;;4.33;;
8791;SDS011;4432;50.890;4.744;2022-12-18T04:10:14;4.50;;;3.67;;
8791;SDS011;4432;50.890;4.744;2022-12-18T04:12:41;10.80;;;4.00;;
8791;SDS011;4432;50.890;4.744;2022-12-18T04:15:07;4.47;;;3.43;;
8791;SDS011;4432;50.890;4.744;2022-12-18T04:17:34;6.83;;;4.40;;
8791;SDS011;4432;50.890;4.744;2022-12-18T04:20:00;6.87;;;4.17;;
8791;SDS011;4432;50.890;4.744;2022-12-18T04:22:25;10.13;;;4.30;;
8791;SDS011;4432;50.890;4.744;2022-12-18T04:24:51;7.40;;;4.10;;
8791;SDS011;4432;50.890;4.744;2022-12-18T04:27:17;7.47;;;4.07;;
8791;SDS011;4432;50.890;4.744;2022-12-18T04:29:43;7.23;;;4.63;;
8791;SDS011;4432;50.890;4.744;2022-12-18T04:32:09;9.27;;;4.77;;
8791;SDS011;4432;50.890;4.744;2022-12-18T04:34:35;7.43;;;2.80;;
8791;SDS011;4432;50.890;4.744;2022-12-18T04:37:01;6.30;;;3.30;;
8791;SDS011;4432;50.890;4.744;2022-12-18T04:39:27;7.23;;;4.70;;
8791;SDS011;4432;50.890;4.744;2022-12-18T04:41:53;3.07;;;2.83;;
8791;SDS011;4432;50.890;4.744;2022-12-18T04:44:19;13.43;;;4.30;;
8791;SDS011;4432;50.890;4.744;2022-12-18T04:46:46;4.77;;;3.60;;
8791;SDS011;4432;50.890;4.744;2022-12-18T04:49:12;5.23;;;4.10;;
8791;SDS011;4432;50.890;4.744;2022-12-18T04:51:38;4.50;;;3.27;;
8791;SDS011;4432;50.890;4.744;2022-12-18T04:54:04;5.77;;;4.23;;
8791;SDS011;4432;50.890;4.744;2022-12-18T04:56:30;8.53;;;4.37;;
8791;SDS011;4432;50.890;4.744;2022-12-18T04:58:57;5.20;;;3.43;;
8791;SDS011;4432;50.890;4.744;2022-12-18T05:01:22;4.53;;;4.07;;
8791;SDS011;4432;50.890;4.744;2022-12-18T05:03:48;4.53;;;3.37;;
8791;SDS011;4432;50.890;4.744;2022-12-18T05:06:15;7.53;;;6.03;;
8791;SDS011;4432;50.890;4.744;2022-12-18T05:08:41;4.93;;;3.33;;
8791;SDS011;4432;50.890;4.744;2022-12-18T05:11:08;6.40;;;4.27;;
8791;SDS011;4432;50.890;4.744;2022-12-18T05:13:36;5.97;;;4.33;;
8791;SDS011;4432;50.890;4.744;2022-12-18T05:16:03;4.67;;;4.00;;
8791;SDS011;4432;50.890;4.744;2022-12-18T05:18:30;7.27;;;4.80;;
8791;SDS011;4432;50.890;4.744;2022-12-18T05:20:56;6.67;;;4.03;;
8791;SDS011;4432;50.890;4.744;2022-12-18T05:23:22;5.40;;;3.27;;
8791;SDS011;4432;50.890;4.744;2022-12-18T05:25:56;7.40;;;3.10;;
8791;SDS011;4432;50.890;4.744;2022-12-18T05:28:24;14.77;;;4.73;;
8791;SDS011;4432;50.890;4.744;2022-12-18T05:30:52;7.23;;;3.40;;
8791;SDS011;4432;50.890;4.744;2022-12-18T05:33:20;8.13;;;4.73;;
8791;SDS011;4432;50.890;4.744;2022-12-18T05:35:50;5.03;;;3.80;;
8791;SDS011;4432;50.890;4.744;2022-12-18T05:38:18;9.53;;;4.00;;
8791;SDS011;4432;50.890;4.744;2022-12-18T05:40:44;11.80;;;4.80;;
8791;SDS011;4432;50.890;4.744;2022-12-18T05:43:11;6.17;;;4.30;;
8791;SDS011;4432;50.890;4.744;2022-12-18T05:45:37;5.57;;;4.17;;
8791;SDS011;4432;50.890;4.744;2022-12-18T05:48:04;8.40;;;4.27;;
8791;SDS011;4432;50.890;4.744;2022-12-18T05:50:30;5.67;;;4.30;;
8791;SDS011;4432;50.890;4.744;2022-12-18T05:52:58;8.87;;;4.90;;
8791;SDS011;4432;50.890;4.744;2022-12-18T05:55:24;9.50;;;4.57;;
8791;SDS011;4432;50.890;4.744;2022-12-18T05:57:51;4.53;;;3.07;;
8791;SDS011;4432;50.890;4.744;2022-12-18T06:00:17;6.30;;;3.83;;
8791;SDS011;4432;50.890;4.744;2022-12-18T06:02:46;9.60;;;4.63;;
8791;SDS011;4432;50.890;4.744;2022-12-18T06:05:12;5.73;;;3.77;;
8791;SDS011;4432;50.890;4.744;2022-12-18T06:07:38;5.33;;;3.07;;
8791;SDS011;4432;50.890;4.744;2022-12-18T06:10:04;5.03;;;3.40;;
8791;SDS011;4432;50.890;4.744;2022-12-18T06:12:30;5.00;;;3.90;;
8791;SDS011;4432;50.890;4.744;2022-12-18T06:14:58;8.17;;;3.00;;
8791;SDS011;4432;50.890;4.744;2022-12-18T06:17:28;8.67;;;4.03;;
8791;SDS011;4432;50.890;4.744;2022-12-18T06:19:55;6.30;;;2.40;;
8791;SDS011;4432;50.890;4.744;2022-12-18T06:22:21;6.20;;;4.37;;
8791;SDS011;4432;50.890;4.744;2022-12-18T06:24:47;10.33;;;5.13;;
8791;SDS011;4432;50.890;4.744;2022-12-18T06:27:12;6.43;;;3.23;;
8791;SDS011;4432;50.890;4.744;2022-12-18T06:29:39;3.43;;;2.47;;
8791;SDS011;4432;50.890;4.744;2022-12-18T06:32:04;6.73;;;4.03;;
8791;SDS011;4432;50.890;4.744;2022-12-18T06:34:30;6.03;;;2.33;;
8791;SDS011;4432;50.890;4.744;2022-12-18T06:36:57;6.67;;;3.67;;
8791;SDS011;4432;50.890;4.744;2022-12-18T06:39:24;3.13;;;2.87;;
8791;SDS011;4432;50.890;4.744;2022-12-18T06:41:52;8.13;;;3.93;;
8791;SDS011;4432;50.890;4.744;2022-12-18T06:44:18;4.40;;;4.00;;
8791;SDS011;4432;50.890;4.744;2022-12-18T06:46:44;5.37;;;3.03;;
8791;SDS011;4432;50.890;4.744;2022-12-18T06:49:10;4.33;;;3.90;;
8791;SDS011;4432;50.890;4.744;2022-12-18T06:51:36;4.83;;;3.33;;
8791;SDS011;4432;50.890;4.744;2022-12-18T06:54:02;5.57;;;3.20;;
8791;SDS011;4432;50.890;4.744;2022-12-18T06:56:29;7.33;;;4.93;;
8791;SDS011;4432;50.890;4.744;2022-12-18T06:58:55;5.80;;;4.07;;
8791;SDS011;4432;50.890;4.744;2022-12-18T07:01:21;3.97;;;3.17;;
8791;SDS011;4432;50.890;4.744;2022-12-18T07:03:47;4.73;;;3.43;;
8791;SDS011;4432;50.890;4.744;2022-12-18T07:06:20;4.13;;;3.73;;
8791;SDS011;4432;50.890;4.744;2022-12-18T07:08:48;5.83;;;4.63;;
8791;SDS011;4432;50.890;4.744;2022-12-18T07:11:15;6.10;;;3.20;;
8791;SDS011;4432;50.890;4.744;2022-12-18T07:13:42;6.50;;;2.93;;
8791;SDS011;4432;50.890;4.744;2022-12-18T07:16:09;5.53;;;3.67;;
8791;SDS011;4432;50.890;4.744;2022-12-18T07:18:45;8.90;;;4.07;;
8791;SDS011;4432;50.890;4.744;2022-12-18T07:21:12;7.10;;;5.23;;
8791;SDS011;4432;50.890;4.744;2022-12-18T07:23:40;12.47;;;6.20;;
8791;SDS011;4432;50.890;4.744;2022-12-18T07:26:08;4.30;;;3.20;;
8791;SDS011;4432;50.890;4.744;2022-12-18T07:28:36;10.00;;;4.67;;
8791;SDS011;4432;50.890;4.744;2022-12-18T07:31:07;7.33;;;4.63;;
8791;SDS011;4432;50.890;4.744;2022-12-18T07:33:38;6.90;;;4.30;;
8791;SDS011;4432;50.890;4.744;2022-12-18T07:36:05;4.33;;;3.80;;
8791;SDS011;4432;50.890;4.744;2022-12-18T07:38:33;8.77;;;4.40;;
8791;SDS011;4432;50.890;4.744;2022-12-18T07:41:00;3.67;;;3.20;;
8791;SDS011;4432;50.890;4.744;2022-12-18T07:43:27;8.53;;;4.63;;
8791;SDS011;4432;50.890;4.744;2022-12-18T07:45:53;6.87;;;4.23;;
8791;SDS011;4432;50.890;4.744;2022-12-18T07:48:19;8.60;;;3.93;;
8791;SDS011;4432;50.890;4.744;2022-12-18T07:50:45;7.87;;;3.40;;
8791;SDS011;4432;50.890;4.744;2022-12-18T07:53:11;5.83;;;4.40;;
8791;SDS011;4432;50.890;4.744;2022-12-18T07:55:37;11.33;;;3.83;;
8791;SDS011;4432;50.890;4.744;2022-12-18T07:58:03;9.13;;;4.27;;
8791;SDS011;4432;50.890;4.744;2022-12-18T08:00:30;7.80;;;5.37;;
8791;SDS011;4432;50.890;4.744;2022-12-18T08:02:56;8.83;;;4.53;;
8791;SDS011;4432;50.890;4.744;2022-12-18T08:05:22;3.83;;;3.17;;
8791;SDS011;4432;50.890;4.744;2022-12-18T08:07:48;6.60;;;3.83;;
8791;SDS011;4432;50.890;4.744;2022-12-18T08:10:16;6.63;;;4.13;;
8791;SDS011;4432;50.890;4.744;2022-12-18T08:12:42;3.80;;;3.43;;
8791;SDS011;4432;50.890;4.744;2022-12-18T08:15:08;6.83;;;4.03;;
8791;SDS011;4432;50.890;4.744;2022-12-18T08:17:35;8.17;;;4.30;;
8791;SDS011;4432;50.890;4.744;2022-12-18T08:20:01;6.57;;;4.03;;
8791;SDS011;4432;50.890;4.744;2022-12-18T08:22:26;4.50;;;3.53;;
8791;SDS011;4432;50.890;4.744;2022-12-18T08:24:52;7.40;;;3.53;;
8791;SDS011;4432;50.890;4.744;2022-12-18T08:27:18;6.33;;;4.90;;
8791;SDS011;4432;50.890;4.744;2022-12-18T08:29:44;10.50;;;4.23;;
8791;SDS011;4432;50.890;4.744;2022-12-18T08:32:12;14.67;;;5.53;;
8791;SDS011;4432;50.890;4.744;2022-12-18T08:34:37;7.17;;;5.23;;
8791;SDS011;4432;50.890;4.744;2022-12-18T08:37:03;8.03;;;5.27;;
8791;SDS011;4432;50.890;4.744;2022-12-18T08:39:29;8.57;;;5.10;;
8791;SDS011;4432;50.890;4.744;2022-12-18T08:41:55;7.53;;;4.77;;
8791;SDS011;4432;50.890;4.744;2022-12-18T08:44:39;12.87;;;5.50;;
8791;SDS011;4432;50.890;4.744;2022-12-18T08:47:05;16.43;;;4.13;;
8791;SDS011;4432;50.890;4.744;2022-12-18T08:49:32;8.47;;;4.67;;
8791;SDS011;4432;50.890;4.744;2022-12-18T08:51:59;14.33;;;5.93;;
8791;SDS011;4432;50.890;4.744;2022-12-18T08:54:25;10.47;;;5.70;;
8791;SDS011;4432;50.890;4.744;2022-12-18T08:56:52;8.17;;;4.50;;
8791;SDS011;4432;50.890;4.744;2022-12-18T08:59:18;10.07;;;5.83;;
8791;SDS011;4432;50.890;4.744;2022-12-18T09:01:44;11.33;;;4.97;;
8791;SDS011;4432;50.890;4.744;2022-12-18T09:04:11;8.40;;;4.43;;
8791;SDS011;4432;50.890;4.744;2022-12-18T09:06:37;7.30;;;4.70;;
8791;SDS011;4432;50.890;4.744;2022-12-18T09:09:04;7.77;;;4.47;;
8791;SDS011;4432;50.890;4.744;2022-12-18T09:11:30;7.57;;;5.00;;
8791;SDS011;4432;50.890;4.744;2022-12-18T09:13:57;10.90;;;5.20;;
8791;SDS011;4432;50.890;4.744;2022-12-18T09:16:25;7.00;;;4.50;;
8791;SDS011;4432;50.890;4.744;2022-12-18T09:18:54;9.63;;;5.60;;
8791;SDS011;4432;50.890;4.744;2022-12-18T09:21:24;7.80;;;4.17;;
8791;SDS011;4432;50.890;4.744;2022-12-18T09:23:52;7.23;;;4.57;;
8791;SDS011;4432;50.890;4.744;2022-12-18T09:26:19;5.73;;;4.30;;
8791;SDS011;4432;50.890;4.744;2022-12-18T09:28:46;9.80;;;5.57;;
8791;SDS011;4432;50.890;4.744;2022-12-18T09:31:12;12.30;;;4.33;;
8791;SDS011;4432;50.890;4.744;2022-12-18T09:33:39;5.17;;;3.70;;
8791;SDS011;4432;50.890;4.744;2022-12-18T09:36:06;8.73;;;5.00;;
8791;SDS011;4432;50.890;4.744;2022-12-18T09:38:33;9.70;;;5.30;;
8791;SDS011;4432;50.890;4.744;2022-12-18T09:41:04;6.60;;;4.33;;
8791;SDS011;4432;50.890;4.744;2022-12-18T09:43:39;7.00;;;5.57;;
8791;SDS011;4432;50.890;4.744;2022-12-18T09:46:07;6.67;;;4.70;;
8791;SDS011;4432;50.890;4.744;2022-12-18T09:48:41;7.23;;;3.97;;
8791;SDS011;4432;50.890;4.744;2022-12-18T09:53:46;7.63;;;4.60;;
8791;SDS011;4432;50.890;4.744;2022-12-18T09:56:18;11.27;;;4.60;;
8791;SDS011;4432;50.890;4.744;2022-12-18T10:01:21;6.00;;;3.83;;
8791;SDS011;4432;50.890;4.744;2022-12-18T10:03:48;10.43;;;4.90;;
8791;SDS011;4432;50.890;4.744;2022-12-18T10:06:18;7.07;;;4.73;;
8791;SDS011;4432;50.890;4.744;2022-12-18T10:11:34;5.90;;;4.17;;
8791;SDS011;4432;50.890;4.744;2022-12-18T10:17:03;7.77;;;5.07;;
8791;SDS011;4432;50.890;4.744;2022-12-18T10:22:22;8.57;;;4.17;;
8791;SDS011;4432;50.890;4.744;2022-12-18T10:27:31;6.60;;;4.27;;
8791;SDS011;4432;50.890;4.744;2022-12-18T10:29:57;8.30;;;5.03;;
8791;SDS011;4432;50.890;4.744;2022-12-18T10:32:24;5.87;;;3.87;;
8791;SDS011;4432;50.890;4.744;2022-12-18T10:34:53;9.93;;;4.70;;
8791;SDS011;4432;50.890;4.744;2022-12-18T10:37:22;12.20;;;5.10;;
8791;SDS011;4432;50.890;4.744;2022-12-18T10:42:40;9.43;;;4.53;;
8791;SDS011;4432;50.890;4.744;2022-12-18T10:45:14;6.53;;;3.83;;
8791;SDS011;4432;50.890;4.744;2022-12-18T10:47:50;8.43;;;4.80;;
8791;SDS011;4432;50.890;4.744;2022-12-18T10:50:20;8.97;;;4.60;;
8791;SDS011;4432;50.890;4.744;2022-12-18T10:52:54;6.87;;;4.37;;
8791;SDS011;4432;50.890;4.744;2022-12-18T10:55:22;7.57;;;5.27;;
8791;SDS011;4432;50.890;4.744;2022-12-18T10:57:49;5.67;;;4.30;;
8791;SDS011;4432;50.890;4.744;2022-12-18T11:02:53;6.37;;;5.03;;
8791;SDS011;4432;50.890;4.744;2022-12-18T11:05:27;8.43;;;4.77;;
8791;SDS011;4432;50.890;4.744;2022-12-18T11:07:53;11.17;;;4.73;;
8791;SDS011;4432;50.890;4.744;2022-12-18T11:10:20;8.17;;;4.63;;
8791;SDS011;4432;50.890;4.744;2022-12-18T11:12:48;7.23;;;5.00;;
8791;SDS011;4432;50.890;4.744;2022-12-18T11:15:15;9.27;;;5.20;;
8791;SDS011;4432;50.890;4.744;2022-12-18T11:17:45;6.23;;;4.17;;
8791;SDS011;4432;50.890;4.744;2022-12-18T11:20:31;7.43;;;4.27;;
8791;SDS011;4432;50.890;4.744;2022-12-18T11:23:00;14.37;;;5.53;;
8791;SDS011;4432;50.890;4.744;2022-12-18T11:25:29;8.30;;;5.30;;
8791;SDS011;4432;50.890;4.744;2022-12-18T11:27:57;8.17;;;4.23;;
8791;SDS011;4432;50.890;4.744;2022-12-18T11:30:30;11.23;;;5.47;;
8791;SDS011;4432;50.890;4.744;2022-12-18T11:33:09;9.20;;;5.77;;
8791;SDS011;4432;50.890;4.744;2022-12-18T11:38:18;8.27;;;4.97;;
8791;SDS011;4432;50.890;4.744;2022-12-18T11:41:03;9.93;;;5.13;;
8791;SDS011;4432;50.890;4.744;2022-12-18T11:43:38;12.80;;;4.93;;
8791;SDS011;4432;50.890;4.744;2022-12-18T11:46:09;6.83;;;4.63;;
8791;SDS011;4432;50.890;4.744;2022-12-18T11:51:48;8.57;;;5.47;;
8791;SDS011;4432;50.890;4.744;2022-12-18T11:54:27;14.80;;;5.63;;
8791;SDS011;4432;50.890;4.744;2022-12-18T11:57:13;8.20;;;4.83;;
8791;SDS011;4432;50.890;4.744;2022-12-18T12:19:44;10.63;;;5.70;;
8791;SDS011;4432;50.890;4.744;2022-12-18T12:22:38;10.77;;;5.97;;
8791;SDS011;4432;50.890;4.744;2022-12-18T12:38:59;7.37;;;5.13;;
8791;SDS011;4432;50.890;4.744;2022-12-18T12:41:31;10.90;;;6.03;;
8791;SDS011;4432;50.890;4.744;2022-12-18T12:44:22;9.80;;;5.73;;
8791;SDS011;4432;50.890;4.744;2022-12-18T12:46:56;9.90;;;6.33;;
8791;SDS011;4432;50.890;4.744;2022-12-18T12:49:26;7.27;;;4.77;;
8791;SDS011;4432;50.890;4.744;2022-12-18T12:52:06;11.27;;;5.90;;
8791;SDS011;4432;50.890;4.744;2022-12-18T12:54:37;11.47;;;6.50;;
8791;SDS011;4432;50.890;4.744;2022-12-18T12:57:20;9.50;;;5.73;;
8791;SDS011;4432;50.890;4.744;2022-12-18T13:00:00;8.23;;;5.83;;
8791;SDS011;4432;50.890;4.744;2022-12-18T13:05:33;9.00;;;6.30;;
8791;SDS011;4432;50.890;4.744;2022-12-18T13:08:12;9.83;;;5.57;;
8791;SDS011;4432;50.890;4.744;2022-12-18T13:10:52;10.00;;;5.87;;
8791;SDS011;4432;50.890;4.744;2022-12-18T13:13:53;10.70;;;6.17;;
8791;SDS011;4432;50.890;4.744;2022-12-18T13:16:21;9.30;;;5.63;;
8791;SDS011;4432;50.890;4.744;2022-12-18T13:18:49;11.20;;;5.63;;
8791;SDS011;4432;50.890;4.744;2022-12-18T13:21:29;12.43;;;6.50;;
8791;SDS011;4432;50.890;4.744;2022-12-18T13:24:15;7.83;;;5.67;;
8791;SDS011;4432;50.890;4.744;2022-12-18T13:26:49;9.40;;;6.17;;
8791;SDS011;4432;50.890;4.744;2022-12-18T13:29:40;12.37;;;6.07;;
8791;SDS011;4432;50.890;4.744;2022-12-18T13:32:21;8.00;;;5.07;;
8791;SDS011;4432;50.890;4.744;2022-12-18T13:34:48;10.33;;;5.27;;
8791;SDS011;4432;50.890;4.744;2022-12-18T13:39:58;11.87;;;5.43;;
8791;SDS011;4432;50.890;4.744;2022-12-18T13:42:37;8.43;;;4.63;;
8791;SDS011;4432;50.890;4.744;2022-12-18T13:45:37;10.63;;;5.23;;
8791;SDS011;4432;50.890;4.744;2022-12-18T13:48:14;9.40;;;4.63;;
8791;SDS011;4432;50.890;4.744;2022-12-18T13:50:42;11.67;;;5.83;;
8791;SDS011;4432;50.890;4.744;2022-12-18T13:56:01;10.70;;;5.27;;
8791;SDS011;4432;50.890;4.744;2022-12-18T13:58:28;12.03;;;6.00;;
8791;SDS011;4432;50.890;4.744;2022-12-18T14:00:54;11.77;;;5.70;;
8791;SDS011;4432;50.890;4.744;2022-12-18T14:03:24;8.23;;;5.47;;
8791;SDS011;4432;50.890;4.744;2022-12-18T14:05:53;13.57;;;6.40;;
8791;SDS011;4432;50.890;4.744;2022-12-18T14:08:21;8.53;;;5.13;;
8791;SDS011;4432;50.890;4.744;2022-12-18T14:10:51;13.03;;;6.50;;
8791;SDS011;4432;50.890;4.744;2022-12-18T14:13:24;10.37;;;5.83;;
8791;SDS011;4432;50.890;4.744;2022-12-18T14:15:54;11.70;;;6.53;;
8791;SDS011;4432;50.890;4.744;2022-12-18T14:18:23;13.20;;;6.83;;
8791;SDS011;4432;50.890;4.744;2022-12-18T14:20:55;11.47;;;6.30;;
8791;SDS011;4432;50.890;4.744;2022-12-18T14:26:01;10.50;;;5.90;;
8791;SDS011;4432;50.890;4.744;2022-12-18T14:28:28;6.57;;;4.33;;
8791;SDS011;4432;50.890;4.744;2022-12-18T14:30:55;10.50;;;5.60;;
8791;SDS011;4432;50.890;4.744;2022-12-18T14:33:25;13.27;;;6.53;;
8791;SDS011;4432;50.890;4.744;2022-12-18T14:38:32;10.00;;;6.20;;
8791;SDS011;4432;50.890;4.744;2022-12-18T14:41:10;14.30;;;6.43;;
8791;SDS011;4432;50.890;4.744;2022-12-18T14:43:38;15.33;;;7.57;;
8791;SDS011;4432;50.890;4.744;2022-12-18T14:48:53;11.93;;;6.87;;
8791;SDS011;4432;50.890;4.744;2022-12-18T14:51:23;15.07;;;7.27;;
8791;SDS011;4432;50.890;4.744;2022-12-18T14:54:01;14.23;;;7.30;;
8791;SDS011;4432;50.890;4.744;2022-12-18T14:56:43;13.37;;;7.77;;
8791;SDS011;4432;50.890;4.744;2022-12-18T14:59:15;14.80;;;6.43;;
8791;SDS011;4432;50.890;4.744;2022-12-18T15:04:26;12.33;;;5.97;;
8791;SDS011;4432;50.890;4.744;2022-12-18T15:09:36;10.63;;;6.10;;
8791;SDS011;4432;50.890;4.744;2022-12-18T15:12:02;14.70;;;6.73;;
8791;SDS011;4432;50.890;4.744;2022-12-18T15:17:03;16.20;;;8.37;;
8791;SDS011;4432;50.890;4.744;2022-12-18T15:19:39;11.00;;;6.70;;
8791;SDS011;4432;50.890;4.744;2022-12-18T15:22:21;12.37;;;6.97;;
8791;SDS011;4432;50.890;4.744;2022-12-18T15:24:55;12.33;;;6.83;;
8791;SDS011;4432;50.890;4.744;2022-12-18T15:32:34;13.53;;;6.80;;
8791;SDS011;4432;50.890;4.744;2022-12-18T15:37:36;15.80;;;6.37;;
8791;SDS011;4432;50.890;4.744;2022-12-18T15:40:04;15.27;;;7.70;;
8791;SDS011;4432;50.890;4.744;2022-12-18T15:42:30;17.97;;;8.63;;
8791;SDS011;4432;50.890;4.744;2022-12-18T15:45:14;16.43;;;7.63;;
8791;SDS011;4432;50.890;4.744;2022-12-18T15:47:40;14.43;;;6.67;;
8791;SDS011;4432;50.890;4.744;2022-12-18T15:50:09;11.17;;;7.20;;
8791;SDS011;4432;50.890;4.744;2022-12-18T15:52:42;12.43;;;6.77;;
8791;SDS011;4432;50.890;4.744;2022-12-18T15:55:14;10.97;;;6.93;;
8791;SDS011;4432;50.890;4.744;2022-12-18T15:58:08;11.73;;;7.33;;
8791;SDS011;4432;50.890;4.744;2022-12-18T16:00:36;18.43;;;7.73;;
8791;SDS011;4432;50.890;4.744;2022-12-18T16:03:04;15.17;;;7.77;;
8791;SDS011;4432;50.890;4.744;2022-12-18T16:05:31;16.17;;;8.60;;
8791;SDS011;4432;50.890;4.744;2022-12-18T16:07:57;15.67;;;7.90;;
8791;SDS011;4432;50.890;4.744;2022-12-18T16:10:24;19.47;;;8.50;;
8791;SDS011;4432;50.890;4.744;2022-12-18T16:12:50;12.57;;;8.23;;
8791;SDS011;4432;50.890;4.744;2022-12-18T16:15:16;11.87;;;6.47;;
8791;SDS011;4432;50.890;4.744;2022-12-18T16:17:42;16.10;;;8.43;;
8791;SDS011;4432;50.890;4.744;2022-12-18T16:20:19;18.73;;;9.30;;
8791;SDS011;4432;50.890;4.744;2022-12-18T16:22:46;14.63;;;7.87;;
8791;SDS011;4432;50.890;4.744;2022-12-18T16:25:19;22.67;;;8.00;;
8791;SDS011;4432;50.890;4.744;2022-12-18T16:27:47;15.27;;;7.60;;
8791;SDS011;4432;50.890;4.744;2022-12-18T16:30:14;14.47;;;6.80;;
8791;SDS011;4432;50.890;4.744;2022-12-18T16:32:41;13.20;;;6.90;;
8791;SDS011;4432;50.890;4.744;2022-12-18T16:35:09;16.93;;;7.80;;
8791;SDS011;4432;50.890;4.744;2022-12-18T16:37:36;15.63;;;7.13;;
8791;SDS011;4432;50.890;4.744;2022-12-18T16:40:02;15.03;;;8.60;;
8791;SDS011;4432;50.890;4.744;2022-12-18T16:42:28;16.03;;;7.77;;
8791;SDS011;4432;50.890;4.744;2022-12-18T16:44:54;12.10;;;6.63;;
8791;SDS011;4432;50.890;4.744;2022-12-18T16:47:20;17.67;;;8.07;;
8791;SDS011;4432;50.890;4.744;2022-12-18T16:49:46;14.63;;;7.23;;
8791;SDS011;4432;50.890;4.744;2022-12-18T16:52:15;13.33;;;6.60;;
8791;SDS011;4432;50.890;4.744;2022-12-18T16:54:42;14.13;;;7.13;;
8791;SDS011;4432;50.890;4.744;2022-12-18T16:57:09;12.63;;;6.93;;
8791;SDS011;4432;50.890;4.744;2022-12-18T16:59:38;17.83;;;8.33;;
8791;SDS011;4432;50.890;4.744;2022-12-18T17:02:04;11.13;;;6.23;;
8791;SDS011;4432;50.890;4.744;2022-12-18T17:04:31;12.67;;;7.33;;
8791;SDS011;4432;50.890;4.744;2022-12-18T17:06:57;12.77;;;6.57;;
8791;SDS011;4432;50.890;4.744;2022-12-18T17:09:23;13.43;;;7.93;;
8791;SDS011;4432;50.890;4.744;2022-12-18T17:11:49;13.30;;;7.03;;
8791;SDS011;4432;50.890;4.744;2022-12-18T17:14:16;12.87;;;7.60;;
8791;SDS011;4432;50.890;4.744;2022-12-18T17:16:44;11.50;;;7.17;;
8791;SDS011;4432;50.890;4.744;2022-12-18T17:19:11;13.43;;;7.70;;
8791;SDS011;4432;50.890;4.744;2022-12-18T17:21:38;11.93;;;6.67;;
8791;SDS011;4432;50.890;4.744;2022-12-18T17:24:04;12.83;;;7.57;;